createdAt,value
2022-07-26T00:00:00.907Z,72412.78
2022-07-26T00:00:35.829Z,72412.78
2022-07-26T00:01:08.324Z,72406.81
2022-07-26T00:01:40.790Z,72408.78
2022-07-26T00:02:18.503Z,72414.78
2022-07-26T00:02:51.183Z,72412.78
2022-07-26T00:03:23.531Z,72414.78
2022-07-26T00:03:58.512Z,72414.78
2022-07-26T00:04:30.860Z,72410.78
2022-07-26T00:05:03.383Z,72414.78
2022-07-26T00:05:40.806Z,72414.78
2022-07-26T00:06:13.141Z,72414.78
2022-07-26T00:06:45.523Z,72414.78
2022-07-26T00:07:20.490Z,72418.78
2022-07-26T00:08:10.812Z,72410.78
2022-07-26T00:08:43.242Z,72414.78
2022-07-26T00:09:18.151Z,72416.78
2022-07-26T00:09:50.466Z,72410.78
2022-07-26T00:10:22.813Z,72410.78
2022-07-26T00:10:57.841Z,72414.78
2022-07-26T00:11:33.776Z,72412.78
2022-07-26T00:12:09.813Z,72410.78
2022-07-26T00:12:44.821Z,72414.78
2022-07-26T00:13:18.073Z,72414.78
2022-07-26T00:13:50.377Z,72414.78
2022-07-26T00:14:25.438Z,72414.78
2022-07-26T00:14:58.015Z,72412.78
2022-07-26T00:15:30.475Z,72410.78
2022-07-26T00:16:06.008Z,72414.78
2022-07-26T00:16:39.168Z,72410.78
2022-07-26T00:17:14.275Z,72410.78
2022-07-26T00:17:46.577Z,72410.78
2022-07-26T00:18:19.331Z,72410.78
2022-07-26T00:18:54.263Z,72414.78
2022-07-26T00:19:26.607Z,72410.78
2022-07-26T00:19:59.010Z,72418.78
2022-07-26T00:20:34.213Z,72410.78
2022-07-26T00:21:07.869Z,72416.78
2022-07-26T00:21:41.037Z,72410.78
2022-07-26T00:22:28.399Z,72410.78
2022-07-26T00:23:03.398Z,72418.78
2022-07-26T00:23:35.930Z,72418.78
2022-07-26T00:24:09.119Z,72412.78
2022-07-26T00:24:44.034Z,72418.78
2022-07-26T00:25:16.382Z,72418.78
2022-07-26T00:25:48.749Z,72418.78
2022-07-26T00:26:23.677Z,72422.75
2022-07-26T00:26:55.981Z,72422.75
2022-07-26T00:27:31.149Z,72418.78
2022-07-26T00:28:06.496Z,72422.75
2022-07-26T00:28:38.822Z,72418.78
2022-07-26T00:29:12.014Z,72418.78
2022-07-26T00:29:47.127Z,72422.75
2022-07-26T00:30:19.661Z,72416.78
2022-07-26T00:30:52.094Z,72414.78
2022-07-26T00:31:27.058Z,72414.78
2022-07-26T00:31:59.533Z,72418.78
2022-07-26T00:32:31.965Z,72416.78
2022-07-26T00:33:06.944Z,72414.78
2022-07-26T00:33:39.562Z,72418.78
2022-07-26T00:34:11.867Z,72418.78
2022-07-26T00:34:46.764Z,72414.78
2022-07-26T00:35:19.262Z,72418.78
2022-07-26T00:35:51.640Z,72414.78
2022-07-26T00:36:27.736Z,72418.78
2022-07-26T00:37:00.038Z,72418.78
2022-07-26T00:37:32.862Z,72414.78
2022-07-26T00:38:08.154Z,72410.78
2022-07-26T00:38:41.458Z,72410.78
2022-07-26T00:39:13.815Z,72418.78
2022-07-26T00:39:46.282Z,72414.78
2022-07-26T00:40:21.540Z,72414.78
2022-07-26T00:40:53.870Z,72418.78
2022-07-26T00:41:26.178Z,72414.78
2022-07-26T00:42:01.210Z,72418.78
2022-07-26T00:42:36.224Z,72418.78
2022-07-26T00:43:11.215Z,72412.78
2022-07-26T00:43:56.912Z,72416.78
2022-07-26T00:44:37.494Z,72414.78
2022-07-26T00:45:14.649Z,72414.78
2022-07-26T00:45:47.073Z,72414.78
2022-07-26T00:46:19.555Z,72410.78
2022-07-26T00:46:54.613Z,72416.78
2022-07-26T00:47:27.039Z,72412.78
2022-07-26T00:47:59.453Z,72418.78
2022-07-26T00:48:34.442Z,72414.78
2022-07-26T00:49:07.185Z,72416.78
2022-07-26T00:49:40.243Z,72414.78
2022-07-26T00:50:16.971Z,72412.78
2022-07-26T00:50:49.416Z,72414.78
2022-07-26T00:51:22.267Z,72414.78
2022-07-26T00:51:57.241Z,72410.78
2022-07-26T00:52:29.727Z,72410.78
2022-07-26T00:53:02.203Z,72416.78
2022-07-26T00:53:37.138Z,72414.78
2022-07-26T00:54:09.517Z,72414.78
2022-07-26T00:54:45.691Z,72410.78
2022-07-26T00:55:21.033Z,72414.78
2022-07-26T00:55:53.527Z,72410.78
2022-07-26T00:56:26.622Z,72414.78
2022-07-26T00:56:59.011Z,72416.78
2022-07-26T00:57:35.844Z,72414.78
2022-07-26T00:58:10.851Z,72416.78
2022-07-26T00:58:44.415Z,72412.78
2022-07-26T00:59:19.543Z,72414.78
2022-07-26T00:59:51.979Z,72418.78
2022-07-26T01:00:27.851Z,72414.78
2022-07-26T01:01:02.990Z,72416.78
2022-07-26T01:01:35.577Z,72414.78
2022-07-26T01:02:09.390Z,72410.78
2022-07-26T01:02:44.872Z,72412.78
2022-07-26T01:03:17.252Z,72412.78
2022-07-26T01:03:54.391Z,72414.78
2022-07-26T01:04:27.518Z,72412.78
2022-07-26T01:04:59.919Z,72418.78
2022-07-26T01:05:35.695Z,72416.78
2022-07-26T01:06:08.151Z,72418.78
2022-07-26T01:06:40.935Z,72418.78
2022-07-26T01:07:16.461Z,72422.75
2022-07-26T01:07:49.358Z,72414.78
2022-07-26T01:08:21.723Z,72422.75
2022-07-26T01:08:57.042Z,72422.75
2022-07-26T01:09:30.115Z,72422.75
2022-07-26T01:10:08.773Z,72418.78
2022-07-26T01:10:43.999Z,72418.78
2022-07-26T01:11:16.326Z,72418.78
2022-07-26T01:11:48.690Z,72422.75
2022-07-26T01:12:23.905Z,72422.75
2022-07-26T01:12:56.233Z,72420.78
2022-07-26T01:13:35.051Z,72426.75
2022-07-26T01:14:11.090Z,72426.75
2022-07-26T01:14:44.134Z,72422.75
2022-07-26T01:15:17.266Z,72426.75
2022-07-26T01:15:52.503Z,72422.75
2022-07-26T01:16:25.712Z,72422.75
2022-07-26T01:16:58.311Z,72424.75
2022-07-26T01:17:33.270Z,72426.75
2022-07-26T01:18:08.679Z,72426.75
2022-07-26T01:18:43.761Z,72422.75
2022-07-26T01:19:17.117Z,72424.75
2022-07-26T01:19:49.452Z,72430.75
2022-07-26T01:20:24.375Z,72422.75
2022-07-26T01:20:58.387Z,72422.75
2022-07-26T01:21:33.941Z,72422.75
2022-07-26T01:22:14.155Z,72422.75
2022-07-26T01:22:46.895Z,72416.78
2022-07-26T01:23:19.753Z,72422.75
2022-07-26T01:23:54.766Z,72416.78
2022-07-26T01:24:27.095Z,72414.78
2022-07-26T01:24:59.522Z,72422.75
2022-07-26T01:25:42.426Z,72414.78
2022-07-26T01:26:16.197Z,72418.78
2022-07-26T01:26:48.541Z,72416.78
2022-07-26T01:27:23.851Z,72414.78
2022-07-26T01:27:56.275Z,72414.78
2022-07-26T01:28:28.598Z,72416.78
2022-07-26T01:29:03.521Z,72410.78
2022-07-26T01:29:36.390Z,72416.78
2022-07-26T01:30:11.521Z,72414.78
2022-07-26T01:30:46.429Z,72414.78
2022-07-26T01:31:19.190Z,72416.78
2022-07-26T01:31:52.306Z,72418.78
2022-07-26T01:32:27.334Z,72414.78
2022-07-26T01:32:59.687Z,72418.78
2022-07-26T01:33:33.687Z,72414.78
2022-07-26T01:34:08.905Z,72414.78
2022-07-26T01:34:41.530Z,72418.78
2022-07-26T01:35:13.907Z,72414.78
2022-07-26T01:35:48.871Z,72416.78
2022-07-26T01:36:21.291Z,72418.78
2022-07-26T01:36:56.862Z,72412.78
2022-07-26T01:37:31.786Z,72414.78
2022-07-26T01:38:04.182Z,72414.78
2022-07-26T01:38:36.471Z,72418.78
2022-07-26T01:39:11.389Z,72418.78
2022-07-26T01:39:44.396Z,72416.78
2022-07-26T01:40:16.746Z,72414.78
2022-07-26T01:40:51.702Z,72414.78
2022-07-26T01:41:38.033Z,72418.78
2022-07-26T01:42:10.743Z,72416.78
2022-07-26T01:42:45.735Z,72414.78
2022-07-26T01:43:19.263Z,72416.78
2022-07-26T01:43:51.593Z,72418.78
2022-07-26T01:44:24.182Z,72416.78
2022-07-26T01:44:59.334Z,72416.78
2022-07-26T01:45:32.026Z,72416.78
2022-07-26T01:46:04.799Z,72418.78
2022-07-26T01:46:39.883Z,72418.78
2022-07-26T01:47:12.175Z,72418.78
2022-07-26T01:47:45.174Z,72416.78
2022-07-26T01:48:20.507Z,72414.78
2022-07-26T01:48:53.229Z,72416.78
2022-07-26T01:49:25.634Z,72416.78
2022-07-26T01:50:00.580Z,72410.78
2022-07-26T01:50:32.921Z,72410.78
2022-07-26T01:51:05.515Z,72412.78
2022-07-26T01:51:40.441Z,72406.81
2022-07-26T01:52:15.448Z,72412.78
2022-07-26T01:52:47.770Z,72408.78
2022-07-26T01:53:22.778Z,72414.78
2022-07-26T01:53:55.093Z,72418.78
2022-07-26T01:54:27.459Z,72410.78
2022-07-26T01:55:02.761Z,72414.78
2022-07-26T01:55:35.441Z,72412.78
2022-07-26T01:56:08.258Z,72416.78
2022-07-26T01:56:43.531Z,72414.78
2022-07-26T01:57:15.930Z,72414.78
2022-07-26T01:57:48.226Z,72414.78
2022-07-26T01:58:20.600Z,72410.78
2022-07-26T01:58:55.578Z,72408.78
2022-07-26T01:59:27.945Z,72410.78
2022-07-26T02:00:00.261Z,72410.78
2022-07-26T02:00:32.989Z,72418.78
2022-07-26T02:01:08.387Z,72414.78
2022-07-26T02:01:40.788Z,72412.78
2022-07-26T02:02:13.299Z,72416.78
2022-07-26T02:02:48.432Z,72418.78
2022-07-26T02:03:20.891Z,72418.78
2022-07-26T02:03:53.291Z,72420.78
2022-07-26T02:04:40.615Z,72422.75
2022-07-26T02:05:15.643Z,72420.78
2022-07-26T02:05:47.938Z,72420.78
2022-07-26T02:06:20.246Z,72422.75
2022-07-26T02:06:52.551Z,72428.75
2022-07-26T02:07:33.686Z,72424.75
2022-07-26T02:08:06.085Z,72422.75
2022-07-26T02:08:39.128Z,72422.75
2022-07-26T02:09:14.079Z,72422.75
2022-07-26T02:09:46.386Z,72426.75
2022-07-26T02:10:20.202Z,72426.75
2022-07-26T02:11:00.661Z,72426.75
2022-07-26T02:11:38.460Z,72426.75
2022-07-26T02:12:10.858Z,72426.75
2022-07-26T02:12:43.486Z,72426.75
2022-07-26T02:13:15.960Z,72430.75
2022-07-26T02:13:53.166Z,72422.75
2022-07-26T02:14:27.963Z,72430.75
2022-07-26T02:15:00.735Z,72430.75
2022-07-26T02:15:35.687Z,72432.75
2022-07-26T02:16:09.908Z,72434.75
2022-07-26T02:16:42.342Z,72434.75
2022-07-26T02:17:17.375Z,72426.75
2022-07-26T02:17:49.732Z,72430.75
2022-07-26T02:18:22.086Z,72434.75
2022-07-26T02:18:57.025Z,72432.75
2022-07-26T02:19:29.667Z,72430.75
2022-07-26T02:20:01.998Z,72432.75
2022-07-26T02:20:34.459Z,72428.75
2022-07-26T02:21:10.214Z,72430.75
2022-07-26T02:21:42.555Z,72426.75
2022-07-26T02:22:14.903Z,72430.75
2022-07-26T02:22:52.438Z,72426.75
2022-07-26T02:23:25.599Z,72428.75
2022-07-26T02:24:00.494Z,72434.75
2022-07-26T02:24:33.049Z,72436.72
2022-07-26T02:25:06.466Z,72436.72
2022-07-26T02:25:41.434Z,72432.75
2022-07-26T02:26:13.791Z,72434.75
2022-07-26T02:26:46.286Z,72438.72
2022-07-26T02:27:21.358Z,72434.75
2022-07-26T02:27:53.915Z,72438.72
2022-07-26T02:28:26.278Z,72444.72
2022-07-26T02:29:01.243Z,72442.72
2022-07-26T02:29:33.677Z,72442.72
2022-07-26T02:30:07.277Z,72444.72
2022-07-26T02:30:42.225Z,72438.72
2022-07-26T02:31:15.490Z,72438.72
2022-07-26T02:31:49.240Z,72442.72
2022-07-26T02:32:24.436Z,72440.72
2022-07-26T02:32:56.865Z,72434.75
2022-07-26T02:33:29.230Z,72428.75
2022-07-26T02:34:04.263Z,72426.75
2022-07-26T02:34:38.072Z,72422.75
2022-07-26T02:35:10.509Z,72422.75
2022-07-26T02:35:46.302Z,72430.75
2022-07-26T02:36:18.637Z,72428.75
2022-07-26T02:36:51.156Z,72434.75
2022-07-26T02:37:26.089Z,72436.72
2022-07-26T02:38:04.990Z,72434.75
2022-07-26T02:38:37.351Z,72434.75
2022-07-26T02:39:12.375Z,72436.72
2022-07-26T02:39:44.758Z,72434.75
2022-07-26T02:40:19.457Z,72438.72
2022-07-26T02:40:54.755Z,72434.75
2022-07-26T02:41:27.022Z,72436.72
2022-07-26T02:42:00.807Z,72434.75
2022-07-26T02:42:33.229Z,72438.72
2022-07-26T02:43:09.152Z,72434.75
2022-07-26T02:43:41.458Z,72438.72
2022-07-26T02:44:13.822Z,72432.75
2022-07-26T02:44:48.733Z,72438.72
2022-07-26T02:45:21.294Z,72440.72
2022-07-26T02:46:01.163Z,72438.72
2022-07-26T02:46:37.519Z,72442.72
2022-07-26T02:47:09.925Z,72438.72
2022-07-26T02:47:48.997Z,72438.72
2022-07-26T02:48:24.009Z,72442.72
2022-07-26T02:48:56.384Z,72442.72
2022-07-26T02:49:28.717Z,72442.72
2022-07-26T02:50:01.041Z,72448.72
2022-07-26T02:50:36.143Z,72446.72
2022-07-26T02:51:08.781Z,72444.72
2022-07-26T02:51:41.121Z,72448.72
2022-07-26T02:52:16.030Z,72444.72
2022-07-26T02:52:49.216Z,72430.75
2022-07-26T02:53:24.222Z,72424.75
2022-07-26T02:53:59.176Z,72414.78
2022-07-26T02:54:31.479Z,72406.81
2022-07-26T02:55:04.141Z,72394.81
2022-07-26T02:55:39.102Z,72394.81
2022-07-26T02:56:11.431Z,72380.84
2022-07-26T02:56:43.761Z,72378.84
2022-07-26T02:57:18.733Z,72374.88
2022-07-26T02:57:51.562Z,72368.88
2022-07-26T02:58:25.277Z,72372.88
2022-07-26T02:59:00.242Z,72368.88
2022-07-26T02:59:32.632Z,72358.91
2022-07-26T03:00:09.519Z,72354.91
2022-07-26T03:00:41.855Z,72354.91
2022-07-26T03:01:16.844Z,72354.91
2022-07-26T03:01:49.380Z,72346.94
2022-07-26T03:02:21.803Z,72348.91
2022-07-26T03:02:55.248Z,72342.94
2022-07-26T03:03:30.308Z,72342.94
2022-07-26T03:04:02.847Z,72340.94
2022-07-26T03:04:35.270Z,72338.94
2022-07-26T03:05:11.132Z,72340.94
2022-07-26T03:05:43.513Z,72336.94
2022-07-26T03:06:15.864Z,72338.94
2022-07-26T03:06:51.015Z,72338.94
2022-07-26T03:07:23.343Z,72336.94
2022-07-26T03:07:55.673Z,72336.94
2022-07-26T03:08:31.484Z,72336.94
2022-07-26T03:09:07.342Z,72334.94
2022-07-26T03:09:39.650Z,72338.94
2022-07-26T03:10:12.183Z,72332.97
2022-07-26T03:10:47.521Z,72334.94
2022-07-26T03:11:19.871Z,72332.97
2022-07-26T03:11:52.238Z,72322.97
2022-07-26T03:12:27.318Z,72330.97
2022-07-26T03:12:59.881Z,72326.97
2022-07-26T03:13:32.230Z,72328.97
2022-07-26T03:14:07.382Z,72326.97
2022-07-26T03:14:39.951Z,72330.97
2022-07-26T03:15:12.519Z,72326.97
2022-07-26T03:15:45.054Z,72324.97
2022-07-26T03:16:20.567Z,72322.97
2022-07-26T03:16:55.114Z,72322.97
2022-07-26T03:17:27.403Z,72322.97
2022-07-26T03:18:02.305Z,72324.97
2022-07-26T03:18:34.820Z,72320.97
2022-07-26T03:19:07.251Z,72324.97
2022-07-26T03:19:39.783Z,72320.97
2022-07-26T03:20:15.913Z,72318.97
2022-07-26T03:20:48.363Z,72326.97
2022-07-26T03:21:20.863Z,72315.00
2022-07-26T03:21:53.146Z,72317.00
2022-07-26T03:22:28.189Z,72318.97
2022-07-26T03:23:00.535Z,72315.00
2022-07-26T03:23:35.481Z,72318.97
2022-07-26T03:24:11.097Z,72315.00
2022-07-26T03:24:43.727Z,72311.00
2022-07-26T03:25:16.130Z,72309.00
2022-07-26T03:25:51.068Z,72313.00
2022-07-26T03:26:23.451Z,72311.00
2022-07-26T03:26:55.827Z,72309.00
2022-07-26T03:27:30.739Z,72317.00
2022-07-26T03:28:03.118Z,72317.00
2022-07-26T03:28:35.886Z,72311.00
2022-07-26T03:29:11.454Z,72311.00
2022-07-26T03:29:43.779Z,72313.00
2022-07-26T03:30:16.150Z,72315.00
2022-07-26T03:31:00.110Z,72311.00
2022-07-26T03:31:32.572Z,72311.00
2022-07-26T03:32:05.354Z,72307.00
2022-07-26T03:32:40.466Z,72315.00
2022-07-26T03:33:12.815Z,72311.00
2022-07-26T03:33:47.689Z,72313.00
2022-07-26T03:34:20.584Z,72311.00
2022-07-26T03:34:53.032Z,72311.00
2022-07-26T03:35:28.330Z,72311.00
2022-07-26T03:36:00.599Z,72315.00
2022-07-26T03:36:36.047Z,72311.00
2022-07-26T03:37:08.371Z,72315.00
2022-07-26T03:37:46.319Z,72311.00
2022-07-26T03:38:21.672Z,72315.00
2022-07-26T03:38:56.665Z,72315.00
2022-07-26T03:39:28.958Z,72311.00
2022-07-26T03:40:03.853Z,72311.00
2022-07-26T03:40:36.367Z,72315.00
2022-07-26T03:41:08.727Z,72315.00
2022-07-26T03:41:48.343Z,72313.00
2022-07-26T03:42:20.670Z,72318.97
2022-07-26T03:42:53.570Z,72315.00
2022-07-26T03:43:28.481Z,72315.00
2022-07-26T03:44:03.118Z,72315.00
2022-07-26T03:44:38.120Z,72320.97
2022-07-26T03:45:11.611Z,72315.00
2022-07-26T03:45:43.967Z,72313.00
2022-07-26T03:46:18.958Z,72315.00
2022-07-26T03:46:51.412Z,72313.00
2022-07-26T03:47:23.741Z,72313.00
2022-07-26T03:47:58.653Z,72311.00
2022-07-26T03:48:31.501Z,72311.00
2022-07-26T03:49:04.227Z,72309.00
2022-07-26T03:49:39.190Z,72311.00
2022-07-26T03:50:11.749Z,72311.00
2022-07-26T03:50:44.097Z,72309.00
2022-07-26T03:51:19.013Z,72307.00
2022-07-26T03:51:51.386Z,72307.00
2022-07-26T03:52:23.698Z,72307.00
2022-07-26T03:52:58.674Z,72305.00
2022-07-26T03:53:31.143Z,72303.03
2022-07-26T03:54:07.601Z,72303.03
2022-07-26T03:54:42.825Z,72299.03
2022-07-26T03:55:30.126Z,72303.03
2022-07-26T03:56:17.426Z,72301.03
2022-07-26T03:56:49.767Z,72307.00
2022-07-26T03:57:22.141Z,72305.00
2022-07-26T03:57:54.687Z,72305.00
2022-07-26T03:58:29.566Z,72303.03
2022-07-26T03:59:03.851Z,72307.00
2022-07-26T03:59:36.515Z,72307.00
2022-07-26T04:00:13.282Z,72307.00
2022-07-26T04:00:45.622Z,72307.00
2022-07-26T04:01:18.044Z,72301.03
2022-07-26T04:01:53.269Z,72301.03
2022-07-26T04:02:25.653Z,72305.00
2022-07-26T04:02:58.138Z,72305.00
2022-07-26T04:03:30.584Z,72305.00
2022-07-26T04:04:06.709Z,72309.00
2022-07-26T04:04:41.485Z,72318.97
2022-07-26T04:05:14.643Z,72315.00
2022-07-26T04:05:49.778Z,72307.00
2022-07-26T04:06:24.953Z,72311.00
2022-07-26T04:06:58.351Z,72317.00
2022-07-26T04:07:52.555Z,72313.00
2022-07-26T04:08:26.319Z,72315.00
2022-07-26T04:08:58.677Z,72315.00
2022-07-26T04:09:36.260Z,72311.00
2022-07-26T04:10:09.879Z,72315.00
2022-07-26T04:10:45.826Z,72311.00
2022-07-26T04:11:20.775Z,72315.00
2022-07-26T04:11:53.247Z,72311.00
2022-07-26T04:12:25.578Z,72317.00
2022-07-26T04:13:00.525Z,72315.00
2022-07-26T04:13:33.230Z,72318.97
2022-07-26T04:14:05.938Z,72315.00
2022-07-26T04:14:42.646Z,72318.97
2022-07-26T04:15:17.221Z,72320.97
2022-07-26T04:15:49.873Z,72317.00
2022-07-26T04:16:24.835Z,72320.97
2022-07-26T04:16:57.178Z,72320.97
2022-07-26T04:17:30.154Z,72318.97
2022-07-26T04:18:05.114Z,72324.97
2022-07-26T04:18:37.434Z,72318.97
2022-07-26T04:19:09.860Z,72322.97
2022-07-26T04:19:44.880Z,72315.00
2022-07-26T04:20:17.675Z,72322.97
2022-07-26T04:20:50.034Z,72318.97
2022-07-26T04:21:25.186Z,72318.97
2022-07-26T04:21:57.487Z,72315.00
2022-07-26T04:22:29.806Z,72311.00
2022-07-26T04:23:04.745Z,72307.00
2022-07-26T04:23:47.786Z,72311.00
2022-07-26T04:24:25.859Z,72303.03
2022-07-26T04:25:00.942Z,72307.00
2022-07-26T04:25:40.872Z,72305.00
2022-07-26T04:26:16.985Z,72309.00
2022-07-26T04:26:49.350Z,72305.00
2022-07-26T04:27:21.650Z,72311.00
2022-07-26T04:27:56.567Z,72307.00
2022-07-26T04:28:29.234Z,72307.00
2022-07-26T04:29:01.623Z,72309.00
2022-07-26T04:29:36.529Z,72315.00
2022-07-26T04:30:14.743Z,72311.00
2022-07-26T04:30:48.083Z,72315.00
2022-07-26T04:31:23.265Z,72315.00
2022-07-26T04:31:55.653Z,72315.00
2022-07-26T04:32:28.014Z,72313.00
2022-07-26T04:33:02.891Z,72315.00
2022-07-26T04:33:35.258Z,72315.00
2022-07-26T04:34:07.916Z,72315.00
2022-07-26T04:34:43.033Z,72315.00
2022-07-26T04:35:16.172Z,72317.00
2022-07-26T04:35:48.502Z,72315.00
2022-07-26T04:36:23.482Z,72320.97
2022-07-26T04:36:55.786Z,72318.97
2022-07-26T04:37:28.107Z,72311.00
2022-07-26T04:38:04.240Z,72317.00
2022-07-26T04:38:36.526Z,72318.97
2022-07-26T04:39:08.853Z,72311.00
2022-07-26T04:39:43.783Z,72318.97
2022-07-26T04:40:21.295Z,72315.00
2022-07-26T04:40:55.047Z,72315.00
2022-07-26T04:41:30.006Z,72315.00
2022-07-26T04:42:02.338Z,72320.97
2022-07-26T04:42:34.692Z,72315.00
2022-07-26T04:43:07.097Z,72322.97
2022-07-26T04:43:44.877Z,72322.97
2022-07-26T04:44:17.239Z,72326.97
2022-07-26T04:44:49.526Z,72318.97
2022-07-26T04:45:22.157Z,72322.97
2022-07-26T04:45:57.574Z,72322.97
2022-07-26T04:46:30.031Z,72326.97
2022-07-26T04:47:02.390Z,72330.97
2022-07-26T04:47:37.338Z,72330.97
2022-07-26T04:48:09.671Z,72322.97
2022-07-26T04:48:44.636Z,72322.97
2022-07-26T04:49:17.063Z,72322.97
2022-07-26T04:49:49.434Z,72317.00
2022-07-26T04:50:25.233Z,72315.00
2022-07-26T04:50:57.530Z,72315.00
2022-07-26T04:51:29.829Z,72315.00
2022-07-26T04:52:04.780Z,72315.00
2022-07-26T04:52:37.082Z,72317.00
2022-07-26T04:53:12.436Z,72320.97
2022-07-26T04:53:44.781Z,72318.97
2022-07-26T04:54:20.845Z,72322.97
2022-07-26T04:54:55.723Z,72322.97
2022-07-26T04:55:30.818Z,72326.97
2022-07-26T04:56:06.069Z,72326.97
2022-07-26T04:56:38.377Z,72326.97
2022-07-26T04:57:10.723Z,72326.97
2022-07-26T04:57:47.317Z,72326.97
2022-07-26T04:58:20.036Z,72326.97
2022-07-26T04:58:55.019Z,72330.97
2022-07-26T04:59:27.390Z,72330.97
2022-07-26T05:00:20.364Z,72326.97
2022-07-26T05:01:10.941Z,72334.94
2022-07-26T05:01:43.647Z,72332.97
2022-07-26T05:02:16.117Z,72330.97
2022-07-26T05:02:52.192Z,72330.97
2022-07-26T05:03:25.379Z,72330.97
2022-07-26T05:04:00.395Z,72334.94
2022-07-26T05:04:32.702Z,72330.97
2022-07-26T05:05:06.459Z,72330.97
2022-07-26T05:05:41.415Z,72330.97
2022-07-26T05:06:13.696Z,72330.97
2022-07-26T05:06:48.684Z,72330.97
2022-07-26T05:07:21.023Z,72330.97
2022-07-26T05:07:56.073Z,72326.97
2022-07-26T05:08:31.016Z,72326.97
2022-07-26T05:09:03.867Z,72326.97
2022-07-26T05:09:36.256Z,72326.97
2022-07-26T05:10:12.526Z,72326.97
2022-07-26T05:10:52.988Z,72326.97
2022-07-26T05:11:30.038Z,72328.97
2022-07-26T05:12:02.362Z,72326.97
2022-07-26T05:12:34.686Z,72326.97
2022-07-26T05:13:10.467Z,72326.97
2022-07-26T05:13:42.750Z,72326.97
2022-07-26T05:14:17.689Z,72326.97
2022-07-26T05:14:50.079Z,72328.97
2022-07-26T05:15:22.484Z,72326.97
2022-07-26T05:15:57.580Z,72330.97
2022-07-26T05:16:29.945Z,72320.97
2022-07-26T05:17:08.759Z,72318.97
2022-07-26T05:17:45.292Z,72326.97
2022-07-26T05:18:18.054Z,72322.97
2022-07-26T05:18:50.371Z,72326.97
2022-07-26T05:19:25.330Z,72326.97
2022-07-26T05:20:02.762Z,72322.97
2022-07-26T05:20:36.031Z,72328.97
2022-07-26T05:21:10.980Z,72328.97
2022-07-26T05:21:43.298Z,72326.97
2022-07-26T05:22:15.654Z,72322.97
2022-07-26T05:22:50.575Z,72326.97
2022-07-26T05:23:23.075Z,72326.97
2022-07-26T05:23:55.670Z,72322.97
2022-07-26T05:24:30.716Z,72326.97
2022-07-26T05:25:03.902Z,72322.97
2022-07-26T05:25:39.231Z,72324.97
2022-07-26T05:26:14.316Z,72326.97
2022-07-26T05:26:46.791Z,72320.97
2022-07-26T05:27:21.744Z,72320.97
2022-07-26T05:27:54.109Z,72318.97
2022-07-26T05:28:29.050Z,72318.97
2022-07-26T05:29:01.362Z,72315.00
2022-07-26T05:29:33.672Z,72318.97
2022-07-26T05:30:09.742Z,72318.97
2022-07-26T05:30:42.160Z,72324.97
2022-07-26T05:31:17.280Z,72317.00
2022-07-26T05:31:50.357Z,72322.97
2022-07-26T05:32:22.722Z,72318.97
2022-07-26T05:32:57.686Z,72318.97
2022-07-26T05:33:30.123Z,72322.97
2022-07-26T05:34:03.669Z,72318.97
2022-07-26T05:34:38.580Z,72322.97
2022-07-26T05:35:10.971Z,72315.00
2022-07-26T05:35:45.907Z,72322.97
2022-07-26T05:36:18.374Z,72322.97
2022-07-26T05:36:50.838Z,72320.97
2022-07-26T05:37:25.822Z,72322.97
2022-07-26T05:37:58.169Z,72326.97
2022-07-26T05:38:33.713Z,72326.97
2022-07-26T05:39:06.072Z,72322.97
2022-07-26T05:39:38.501Z,72324.97
2022-07-26T05:40:14.537Z,72322.97
2022-07-26T05:40:50.433Z,72322.97
2022-07-26T05:41:25.814Z,72326.97
2022-07-26T05:42:00.771Z,72326.97
2022-07-26T05:42:33.241Z,72326.97
2022-07-26T05:43:05.661Z,72326.97
2022-07-26T05:43:41.848Z,72326.97
2022-07-26T05:44:14.566Z,72326.97
2022-07-26T05:44:46.906Z,72322.97
2022-07-26T05:45:22.381Z,72322.97
2022-07-26T05:45:56.000Z,72322.97
2022-07-26T05:46:28.570Z,72328.97
2022-07-26T05:47:04.146Z,72326.97
2022-07-26T05:47:36.568Z,72326.97
2022-07-26T05:48:09.046Z,72328.97
2022-07-26T05:48:44.066Z,72332.97
2022-07-26T05:49:16.491Z,72334.94
2022-07-26T05:49:48.982Z,72328.97
2022-07-26T05:50:23.999Z,72326.97
2022-07-26T05:50:56.364Z,72322.97
2022-07-26T05:51:30.345Z,72332.97
2022-07-26T05:52:05.333Z,72328.97
2022-07-26T05:52:37.674Z,72320.97
2022-07-26T05:53:10.406Z,72318.97
2022-07-26T05:53:45.337Z,72326.97
2022-07-26T05:54:18.709Z,72324.97
2022-07-26T05:54:55.399Z,72322.97
2022-07-26T05:55:30.418Z,72322.97
2022-07-26T05:56:02.826Z,72326.97
2022-07-26T05:56:37.810Z,72336.94
2022-07-26T05:57:12.772Z,72330.97
2022-07-26T05:57:49.696Z,72334.94
2022-07-26T05:58:22.258Z,72332.97
2022-07-26T05:58:57.195Z,72330.97
2022-07-26T05:59:29.762Z,72326.97
2022-07-26T06:00:04.872Z,72326.97
2022-07-26T06:00:48.469Z,72326.97
2022-07-26T06:01:23.594Z,72324.97
2022-07-26T06:01:56.931Z,72324.97
2022-07-26T06:02:32.061Z,72326.97
2022-07-26T06:03:22.135Z,72328.97
2022-07-26T06:03:54.538Z,72334.94
2022-07-26T06:04:29.759Z,72330.97
2022-07-26T06:05:02.192Z,72332.97
2022-07-26T06:05:34.567Z,72334.94
2022-07-26T06:06:10.119Z,72330.97
2022-07-26T06:06:42.515Z,72330.97
2022-07-26T06:07:15.007Z,72334.94
2022-07-26T06:07:49.996Z,72334.94
2022-07-26T06:08:22.562Z,72338.94
2022-07-26T06:08:55.728Z,72334.94
2022-07-26T06:09:30.645Z,72336.94
2022-07-26T06:10:03.020Z,72334.94
2022-07-26T06:10:35.380Z,72330.97
2022-07-26T06:11:10.359Z,72330.97
2022-07-26T06:11:45.306Z,72336.94
2022-07-26T06:12:17.747Z,72334.94
2022-07-26T06:12:52.684Z,72332.97
2022-07-26T06:13:25.059Z,72338.94
2022-07-26T06:13:59.997Z,72332.97
2022-07-26T06:14:32.365Z,72338.94
2022-07-26T06:15:15.588Z,72336.94
2022-07-26T06:15:51.166Z,72338.94
2022-07-26T06:16:23.498Z,72330.97
2022-07-26T06:16:59.220Z,72334.94
2022-07-26T06:17:31.719Z,72330.97
2022-07-26T06:18:05.541Z,72330.97
2022-07-26T06:18:40.486Z,72334.94
2022-07-26T06:19:12.871Z,72326.97
2022-07-26T06:19:47.775Z,72330.97
2022-07-26T06:20:23.379Z,72326.97
2022-07-26T06:20:56.167Z,72322.97
2022-07-26T06:21:34.902Z,72326.97
2022-07-26T06:22:09.812Z,72332.97
2022-07-26T06:22:42.179Z,72336.94
2022-07-26T06:23:14.982Z,72330.97
2022-07-26T06:23:49.976Z,72336.94
2022-07-26T06:24:22.331Z,72338.94
2022-07-26T06:24:54.678Z,72330.97
2022-07-26T06:25:30.171Z,72334.94
2022-07-26T06:26:03.907Z,72340.94
2022-07-26T06:26:38.818Z,72340.94
2022-07-26T06:27:13.786Z,72344.94
2022-07-26T06:27:48.743Z,72338.94
2022-07-26T06:28:21.090Z,72334.94
2022-07-26T06:28:56.053Z,72330.97
2022-07-26T06:29:32.292Z,72334.94
2022-07-26T06:30:05.670Z,72330.97
2022-07-26T06:30:41.658Z,72334.94
2022-07-26T06:31:14.033Z,72334.94
2022-07-26T06:31:46.505Z,72330.97
2022-07-26T06:32:21.461Z,72330.97
2022-07-26T06:32:53.832Z,72332.97
2022-07-26T06:33:26.175Z,72334.94
2022-07-26T06:34:01.133Z,72338.94
2022-07-26T06:34:33.430Z,72342.94
2022-07-26T06:35:06.632Z,72340.94
2022-07-26T06:35:42.343Z,72338.94
2022-07-26T06:36:14.715Z,72340.94
2022-07-26T06:36:49.654Z,72344.94
2022-07-26T06:37:21.999Z,72344.94
2022-07-26T06:37:54.330Z,72340.94
2022-07-26T06:38:29.510Z,72346.94
2022-07-26T06:39:01.874Z,72342.94
2022-07-26T06:39:34.599Z,72340.94
2022-07-26T06:40:11.357Z,72342.94
2022-07-26T06:40:43.699Z,72334.94